createdAt,value
2017-07-15T00:25:34.282Z,13.70
2017-07-15T00:28:24.181Z,13.70
2017-07-15T00:51:07.873Z,13.30
2017-07-15T01:10:38.276Z,13.00
2017-07-15T01:16:18.803Z,13.00
2017-07-15T01:38:36.003Z,12.80
2017-07-15T01:41:20.631Z,12.80
2017-07-15T02:12:33.763Z,13.00
2017-07-15T02:21:00.747Z,13.00
2017-07-15T02:37:50.668Z,13.00
2017-07-15T02:54:50.560Z,13.00
2017-07-15T03:20:17.639Z,12.80
2017-07-15T03:25:59.968Z,12.80
2017-07-15T03:33:58.948Z,12.80
2017-07-15T03:36:30.033Z,12.80
2017-07-15T03:38:59.895Z,12.70
2017-07-15T03:41:29.703Z,12.80
2017-07-15T03:44:02.480Z,12.70
2017-07-15T03:46:32.294Z,12.70
2017-07-15T03:49:02.095Z,12.80
2017-07-15T04:02:59.577Z,12.90
2017-07-15T04:11:25.708Z,13.00
2017-07-15T04:22:43.179Z,13.00
2017-07-15T04:28:25.431Z,13.00
2017-07-15T04:42:34.260Z,13.20
2017-07-15T05:02:22.786Z,13.60
2017-07-15T05:10:45.735Z,13.30
2017-07-15T05:13:17.611Z,13.30
2017-07-15T05:21:31.806Z,13.50
2017-07-15T05:24:20.000Z,13.50
2017-07-15T05:27:01.937Z,13.50
2017-07-15T05:32:39.103Z,14.00
2017-07-15T05:35:15.095Z,14.20
2017-07-15T05:40:35.476Z,14.30
2017-07-15T05:48:57.068Z,14.30
2017-07-15T05:51:39.361Z,14.20
2017-07-15T06:05:54.505Z,14.30
2017-07-15T06:17:05.588Z,15.10
2017-07-15T06:31:09.019Z,15.20
2017-07-15T06:53:49.633Z,18.80
2017-07-15T07:13:28.477Z,18.40
2017-07-15T07:16:19.517Z,18.40
2017-07-15T07:41:50.029Z,21.30
2017-07-15T07:44:41.728Z,18.70
2017-07-15T08:01:15.432Z,20.10
2017-07-15T08:03:47.318Z,21.10
2017-07-15T08:15:04.465Z,22.10
2017-07-15T08:26:13.707Z,20.10
2017-07-15T08:31:44.614Z,19.70
2017-07-15T08:34:15.116Z,19.40
2017-07-15T08:39:53.324Z,19.40
2017-07-15T08:42:31.264Z,19.90
2017-07-15T08:48:06.506Z,20.20
2017-07-15T08:56:33.324Z,21.80
2017-07-15T09:02:09.664Z,23.20
2017-07-15T09:13:23.993Z,21.90
2017-07-15T09:16:10.077Z,20.80
2017-07-15T09:21:39.336Z,20.00
2017-07-15T09:24:22.635Z,20.00
2017-07-15T09:30:04.003Z,20.20
2017-07-15T09:38:26.579Z,21.20
2017-07-15T09:44:07.018Z,23.00
2017-07-15T09:52:16.591Z,25.60
2017-07-15T09:55:04.561Z,24.40
2017-07-15T10:00:27.672Z,23.00
2017-07-15T10:03:13.563Z,21.80
2017-07-15T10:05:43.609Z,21.60
2017-07-15T10:08:14.535Z,22.80
2017-07-15T10:13:49.820Z,21.40
2017-07-15T10:16:34.101Z,21.40
2017-07-15T10:19:15.526Z,22.40
2017-07-15T10:30:29.639Z,21.10
2017-07-15T10:36:09.249Z,22.00
2017-07-15T10:38:55.175Z,22.70
2017-07-15T10:41:41.259Z,24.30
2017-07-15T10:44:21.292Z,24.30
2017-07-15T10:52:14.311Z,23.30
2017-07-15T10:54:48.592Z,22.50
2017-07-15T11:00:25.765Z,23.00
2017-07-15T11:11:35.485Z,22.90
2017-07-15T11:14:19.871Z,23.60
2017-07-15T11:19:50.380Z,25.70
2017-07-15T11:22:35.168Z,26.50
2017-07-15T11:25:07.265Z,25.70
2017-07-15T11:27:41.077Z,24.70
2017-07-15T11:30:20.221Z,23.80
2017-07-15T11:32:59.248Z,23.10
2017-07-15T11:38:34.690Z,21.80
2017-07-15T11:41:04.545Z,21.60
2017-07-15T11:46:41.697Z,22.10
2017-07-15T11:57:45.757Z,23.30
2017-07-15T12:00:34.140Z,23.30
2017-07-15T12:11:39.095Z,22.00
2017-07-15T12:22:51.358Z,22.30
2017-07-15T12:36:51.503Z,22.70
2017-07-15T12:39:40.148Z,23.20
2017-07-15T12:47:56.743Z,22.20
2017-07-15T12:50:27.232Z,21.90
2017-07-15T12:58:49.719Z,21.70
2017-07-15T13:01:19.822Z,21.60
2017-07-15T13:03:49.660Z,21.60
2017-07-15T13:06:34.021Z,21.20
2017-07-15T13:09:04.888Z,21.50
2017-07-15T13:11:35.752Z,21.40
2017-07-15T13:14:08.781Z,21.30
2017-07-15T13:16:43.128Z,21.50
2017-07-15T13:19:13.491Z,21.90
2017-07-15T13:21:53.870Z,21.90
2017-07-15T13:24:27.747Z,21.90
2017-07-15T13:27:00.807Z,21.80
2017-07-15T13:29:39.189Z,22.70
2017-07-15T13:32:09.275Z,24.30
2017-07-15T13:34:39.284Z,24.70
2017-07-15T13:37:09.100Z,24.30
2017-07-15T13:39:40.967Z,23.20
2017-07-15T13:42:10.737Z,22.60
2017-07-15T13:44:42.757Z,22.20
2017-07-15T13:47:14.878Z,22.20
2017-07-15T13:49:47.037Z,22.10
2017-07-15T13:52:19.080Z,21.60
2017-07-15T13:54:56.849Z,21.80
2017-07-15T13:57:28.892Z,21.90
2017-07-15T13:59:58.910Z,22.20
2017-07-15T14:02:31.008Z,22.30
2017-07-15T14:05:04.262Z,22.10
2017-07-15T14:07:39.408Z,22.10
2017-07-15T14:10:11.092Z,22.10
2017-07-15T14:12:42.931Z,22.00
2017-07-15T14:15:14.221Z,22.20
2017-07-15T14:17:46.124Z,22.10
2017-07-15T14:20:18.934Z,21.90
2017-07-15T14:22:49.995Z,21.70
2017-07-15T14:25:33.800Z,21.60
2017-07-15T14:28:06.935Z,21.70
2017-07-15T14:30:38.826Z,21.90
2017-07-15T14:33:26.021Z,22.10
2017-07-15T14:36:01.920Z,22.40
2017-07-15T14:38:40.279Z,23.20
2017-07-15T14:41:18.368Z,23.70
2017-07-15T14:43:50.285Z,24.80
2017-07-15T14:46:34.851Z,26.00
2017-07-15T14:49:15.108Z,25.20
2017-07-15T14:51:51.440Z,24.20
2017-07-15T14:54:30.520Z,23.80
2017-07-15T14:59:38.851Z,25.20
2017-07-15T15:02:08.699Z,25.20
2017-07-15T15:04:38.565Z,25.10
2017-07-15T15:07:14.453Z,25.90
2017-07-15T15:09:47.142Z,26.50
2017-07-15T15:12:18.660Z,25.60
2017-07-15T15:14:53.536Z,24.40
2017-07-15T15:17:26.433Z,23.60
2017-07-15T15:20:05.538Z,22.90
2017-07-15T15:22:45.877Z,22.60
2017-07-15T15:25:27.075Z,22.50
2017-07-15T15:28:07.120Z,22.60
2017-07-15T15:30:54.804Z,23.10
2017-07-15T15:33:39.837Z,22.60
2017-07-15T15:36:22.202Z,22.10
2017-07-15T15:38:55.021Z,22.00
2017-07-15T15:41:29.867Z,21.50
2017-07-15T15:44:09.214Z,21.70
2017-07-15T15:46:43.052Z,21.50
2017-07-15T15:52:02.215Z,20.50
2017-07-15T15:57:35.883Z,20.10
2017-07-15T16:00:24.486Z,19.90
2017-07-15T16:05:36.138Z,20.30
2017-07-15T16:08:09.123Z,20.30
2017-07-15T16:10:50.162Z,20.10
2017-07-15T16:13:22.218Z,20.30
2017-07-15T16:15:55.124Z,20.20
2017-07-15T16:18:25.898Z,20.30
2017-07-15T16:20:58.983Z,20.50
2017-07-15T16:23:35.015Z,20.40
2017-07-15T16:26:09.050Z,20.60
2017-07-15T16:28:43.070Z,20.60
2017-07-15T16:31:21.409Z,20.70
2017-07-15T16:33:57.264Z,21.10
2017-07-15T16:36:31.322Z,21.00
2017-07-15T16:39:12.634Z,20.90
2017-07-15T16:41:43.387Z,21.00
2017-07-15T16:44:26.476Z,21.00
2017-07-15T16:47:05.769Z,20.60
2017-07-15T16:49:48.645Z,20.20
2017-07-15T16:52:26.813Z,20.30
2017-07-15T16:54:59.600Z,20.10
2017-07-15T16:57:44.960Z,20.10
2017-07-15T17:00:20.320Z,19.90
2017-07-15T17:02:49.969Z,19.90
2017-07-15T17:05:26.229Z,19.90
2017-07-15T17:07:59.033Z,20.00
2017-07-15T17:10:30.843Z,19.90
2017-07-15T17:13:10.988Z,19.70
2017-07-15T17:15:45.830Z,19.60
2017-07-15T17:18:20.935Z,19.40
2017-07-15T17:20:55.047Z,19.60
2017-07-15T17:23:27.852Z,19.70
2017-07-15T17:25:58.728Z,19.80
2017-07-15T17:31:17.108Z,19.70
2017-07-15T17:33:51.177Z,19.60
2017-07-15T17:36:21.242Z,19.50
2017-07-15T17:38:56.316Z,19.60
2017-07-15T17:41:28.129Z,19.60
2017-07-15T17:43:59.994Z,19.50
2017-07-15T17:46:45.281Z,19.50
2017-07-15T17:49:20.142Z,19.40
2017-07-15T17:51:54.948Z,19.40
2017-07-15T18:11:34.323Z,18.70
2017-07-15T18:14:19.421Z,18.60
2017-07-15T18:22:30.918Z,18.40
2017-07-15T18:28:11.816Z,18.20
2017-07-15T18:33:50.690Z,18.00
2017-07-15T18:36:24.470Z,17.90
2017-07-15T18:50:23.744Z,17.60
2017-07-15T18:58:50.854Z,17.30
2017-07-15T19:01:35.297Z,17.10
2017-07-15T19:04:20.882Z,17.10
2017-07-15T19:07:10.513Z,17.10
2017-07-15T19:09:40.344Z,16.90
2017-07-15T19:12:12.615Z,16.80
2017-07-15T19:14:59.136Z,16.80
2017-07-15T19:17:35.375Z,16.60
2017-07-15T19:20:19.744Z,16.60
2017-07-15T19:22:54.181Z,16.60
2017-07-15T19:28:12.978Z,16.30
2017-07-15T19:33:28.231Z,16.20
2017-07-15T19:38:51.223Z,15.90
2017-07-15T19:44:24.934Z,15.70
2017-07-15T19:55:44.415Z,15.40
2017-07-15T20:01:21.323Z,15.30
2017-07-15T20:09:47.309Z,15.10
2017-07-15T20:18:00.153Z,14.80
2017-07-15T20:20:45.718Z,14.60
2017-07-15T20:23:15.877Z,14.50
2017-07-15T20:34:21.767Z,14.20
2017-07-15T20:36:56.803Z,14.10
2017-07-15T21:19:18.249Z,13.20
2017-07-15T21:33:16.656Z,12.90
2017-07-15T21:41:25.848Z,12.80
2017-07-15T21:55:29.454Z,12.50
2017-07-15T21:58:01.862Z,12.50
2017-07-15T22:03:25.230Z,12.40
2017-07-15T22:05:57.805Z,12.20
2017-07-15T22:08:28.633Z,12.20
2017-07-15T22:10:59.468Z,12.10
2017-07-15T22:13:31.112Z,12.00
2017-07-15T22:16:01.104Z,12.00
2017-07-15T22:18:31.046Z,12.00
2017-07-15T22:21:00.871Z,12.00
2017-07-15T22:23:31.299Z,11.90
2017-07-15T22:26:01.935Z,11.80
2017-07-15T22:28:32.729Z,11.70
2017-07-15T22:31:05.501Z,11.70
2017-07-15T22:33:36.407Z,11.70
2017-07-15T22:36:11.317Z,11.70
2017-07-15T22:38:45.981Z,11.40
2017-07-15T22:41:17.909Z,11.40
2017-07-15T22:43:49.564Z,11.20
2017-07-15T22:46:21.160Z,11.20
2017-07-15T22:48:52.291Z,11.20
2017-07-15T22:51:24.171Z,11.30
2017-07-15T22:53:56.109Z,11.30
2017-07-15T22:56:28.294Z,11.20
2017-07-15T23:01:46.256Z,11.10
2017-07-15T23:04:17.437Z,11.00
2017-07-15T23:06:51.131Z,11.00
2017-07-15T23:09:21.235Z,11.00
2017-07-15T23:11:57.189Z,11.00
2017-07-15T23:14:29.222Z,11.00
2017-07-15T23:17:01.013Z,10.90
2017-07-15T23:19:32.912Z,10.90
2017-07-15T23:22:09.774Z,10.90
2017-07-15T23:24:42.448Z,10.80
2017-07-15T23:27:23.448Z,10.70
2017-07-15T23:29:54.284Z,10.70
2017-07-15T23:35:26.192Z,10.70
2017-07-15T23:38:03.164Z,10.70
2017-07-15T23:40:44.341Z,10.70
2017-07-15T23:43:15.757Z,10.60
2017-07-15T23:45:50.708Z,10.50
2017-07-15T23:51:09.898Z,10.50
2017-07-15T23:53:50.403Z,10.50
2017-07-15T23:56:25.623Z,10.40
